Time;durP1;ratioP1;P1;durP2;ratioP2;P2;SDS_P1;SDS_P2;PMS_P1;PMS_P2;Temp;Humidity;BMP_temperature;BMP_pressure;BME280_temperature;BME280_humidity;BME280_pressure;Samples;Min_cycle;Max_cycle;Signal;HPM_P1;HPM_P2
2022/11/27 00:00:39;;;;;;;251.55;54.10;;;;;;;6.13;100.00;102645.97;5019264;28;20187;-45
2022/11/27 00:03:05;;;;;;;234.18;56.30;;;;;;;6.15;100.00;102647.75;5020894;28;20679;-48
2022/11/27 00:05:30;;;;;;;218.10;52.35;;;;;;;6.15;100.00;102623.81;5026816;28;20213;-45
2022/11/27 00:07:56;;;;;;;228.30;54.28;;;;;;;6.15;100.00;102637.13;5025871;28;20685;-44
2022/11/27 00:10:21;;;;;;;210.98;53.88;;;;;;;6.15;100.00;102641.56;5022031;28;20173;-45
2022/11/27 00:12:47;;;;;;;213.38;54.13;;;;;;;6.12;100.00;102625.53;5019583;28;20226;-47
2022/11/27 00:15:13;;;;;;;193.43;52.85;;;;;;;6.16;100.00;102622.91;5019279;28;20266;-45
2022/11/27 00:17:38;;;;;;;224.90;57.67;;;;;;;6.14;100.00;102616.72;5021455;28;20201;-46
2022/11/27 00:20:04;;;;;;;188.38;52.58;;;;;;;6.17;100.00;102618.50;5020140;28;20189;-46
2022/11/27 00:22:30;;;;;;;218.00;53.08;;;;;;;6.13;100.00;102619.34;5021146;28;20210;-45
2022/11/27 00:24:55;;;;;;;217.70;55.03;;;;;;;6.14;100.00;102599.84;5017993;28;20264;-45
2022/11/27 00:27:21;;;;;;;220.30;55.65;;;;;;;6.14;100.00;102605.16;5018769;28;20240;-46
2022/11/27 00:29:46;;;;;;;228.82;55.55;;;;;;;6.17;100.00;102605.19;5021484;28;20256;-46
2022/11/27 00:32:12;;;;;;;204.90;53.30;;;;;;;6.14;100.00;102611.41;5018177;28;20652;-45
2022/11/27 00:34:37;;;;;;;192.20;52.75;;;;;;;6.16;100.00;102622.03;5018498;28;20629;-45
2022/11/27 00:37:03;;;;;;;190.23;53.45;;;;;;;6.13;100.00;102608.72;5018742;28;20192;-45
2022/11/27 00:39:28;;;;;;;181.35;52.75;;;;;;;6.16;100.00;102617.59;5015771;28;20255;-47
2022/11/27 00:41:54;;;;;;;204.82;54.25;;;;;;;6.16;100.00;102625.56;5019206;28;20233;-47
2022/11/27 00:44:20;;;;;;;193.02;52.10;;;;;;;6.17;100.00;102618.50;5022393;28;20173;-46
2022/11/27 00:46:45;;;;;;;173.18;51.67;;;;;;;6.21;100.00;102630.97;5016408;28;20259;-46
2022/11/27 00:49:13;;;;;;;164.77;48.20;;;;;;;6.21;100.00;102633.63;5019106;28;20294;-47
2022/11/27 00:51:39;;;;;;;182.98;52.38;;;;;;;6.18;100.00;102639.78;5024152;28;20294;-45
2022/11/27 00:54:05;;;;;;;189.90;52.45;;;;;;;6.24;100.00;102646.06;5026027;28;20183;-44
2022/11/27 00:56:33;;;;;;;178.43;51.08;;;;;;;6.16;100.00;102649.53;5020638;28;20210;-46
2022/11/27 00:58:59;;;;;;;202.45;53.38;;;;;;;6.19;100.00;102646.03;5021768;28;20706;-46
2022/11/27 01:01:28;;;;;;;152.43;48.97;;;;;;;6.19;100.00;102654.91;5021614;28;20279;-46
2022/11/27 01:03:55;;;;;;;146.25;48.42;;;;;;;6.26;100.00;102652.31;5018046;28;20231;-46
2022/11/27 01:06:21;;;;;;;173.32;50.80;;;;;;;6.23;100.00;102647.84;5019605;28;20557;-47
2022/11/27 01:08:47;;;;;;;114.55;45.17;;;;;;;6.28;100.00;102656.75;5018705;28;20200;-46
2022/11/27 01:11:18;;;;;;;160.82;52.08;;;;;;;6.27;100.00;102656.72;5018171;28;20187;-47
2022/11/27 01:13:44;;;;;;;157.30;51.92;;;;;;;6.22;100.00;102661.13;5019887;28;20266;-47
2022/11/27 01:16:14;;;;;;;158.32;52.33;;;;;;;6.20;100.00;102655.78;5019256;28;20283;-45
2022/11/27 01:18:41;;;;;;;158.70;50.47;;;;;;;6.18;100.00;102650.44;5014696;28;20212;-46
2022/11/27 01:21:07;;;;;;;159.60;50.88;;;;;;;6.21;100.00;102652.25;5017817;28;20212;-47
2022/11/27 01:23:33;;;;;;;154.38;50.05;;;;;;;6.23;100.00;102644.25;5018985;28;20700;-46
2022/11/27 01:26:05;;;;;;;146.73;50.95;;;;;;;6.20;100.00;102637.16;5019062;28;20176;-46
2022/11/27 01:28:32;;;;;;;159.60;51.22;;;;;;;6.20;100.00;102642.47;5018255;28;20300;-49
2022/11/27 01:30:58;;;;;;;145.95;49.55;;;;;;;6.19;100.00;102630.06;5018236;28;20196;-47
2022/11/27 01:33:24;;;;;;;157.65;50.65;;;;;;;6.18;100.00;102638.91;5017741;28;20189;-41
2022/11/27 01:36:09;;;;;;;148.00;50.38;;;;;;;6.15;100.00;102639.78;5023389;28;20187;-39
2022/11/27 01:38:35;;;;;;;138.00;51.67;;;;;;;6.21;100.00;102638.03;5023999;28;20254;-40
2022/11/27 01:41:14;;;;;;;133.18;48.25;;;;;;;6.23;100.00;102641.59;5022917;28;20203;-41
2022/11/27 01:43:52;;;;;;;135.85;50.13;;;;;;;6.18;100.00;102637.13;5017685;28;20246;-41
2022/11/27 01:46:33;;;;;;;147.05;51.00;;;;;;;6.21;100.00;102625.66;5023749;28;20234;-40
2022/11/27 01:49:08;;;;;;;119.55;48.92;;;;;;;6.18;100.00;102626.47;5025610;28;20588;-42
2022/11/27 01:51:40;;;;;;;134.70;49.83;;;;;;;6.18;100.00;102617.63;5020113;28;20188;-40
2022/11/27 01:54:08;;;;;;;140.73;49.28;;;;;;;6.19;100.00;102616.75;5027048;28;20673;-41
2022/11/27 01:56:34;;;;;;;135.98;49.55;;;;;;;6.17;100.00;102627.38;5022698;28;20220;-41
2022/11/27 01:59:01;;;;;;;142.55;48.80;;;;;;;6.18;100.00;102625.59;5017389;28;20612;-42
2022/11/27 02:01:27;;;;;;;110.60;44.47;;;;;;;6.27;100.00;102619.47;5020633;28;20196;-41
2022/11/27 02:03:56;;;;;;;132.25;50.00;;;;;;;6.18;100.00;102607.84;5018193;28;20659;-39
2022/11/27 02:06:23;;;;;;;119.07;48.63;;;;;;;6.15;100.00;102610.50;5019176;28;20544;-41
2022/11/27 02:08:49;;;;;;;130.90;50.20;;;;;;;6.14;100.00;102624.69;5015678;28;20209;-41
2022/11/27 02:11:23;;;;;;;130.13;50.78;;;;;;;6.16;100.00;102603.41;5017190;28;20714;-39
2022/11/27 02:14:08;;;;;;;112.75;46.05;;;;;;;6.14;100.00;102608.72;5016269;28;20333;-41
2022/11/27 02:17:18;;;;;;;125.43;47.55;;;;;;;6.14;100.00;102602.50;5017376;28;20216;-42
2022/11/27 02:20:02;;;;;;;112.95;44.35;;;;;;;6.15;100.00;102612.28;5016878;28;20639;-40
2022/11/27 02:22:46;;;;;;;119.75;46.95;;;;;;;6.15;100.00;102609.63;5022973;28;20246;-42
2022/11/27 02:25:55;;;;;;;123.32;45.70;;;;;;;6.15;100.00;102594.53;5037056;28;20214;-41
2022/11/27 02:28:56;;;;;;;115.10;45.05;;;;;;;6.15;100.00;102594.53;5016204;28;20206;-44
2022/11/27 02:31:33;;;;;;;111.63;45.83;;;;;;;6.10;100.00;102590.94;5024894;28;20188;-41
2022/11/27 02:34:18;;;;;;;115.03;44.60;;;;;;;6.10;100.00;102598.03;5022594;28;20196;-43
2022/11/27 02:36:51;;;;;;;104.30;43.60;;;;;;;6.13;100.00;102603.38;5017317;28;20200;-42
2022/11/27 02:39:24;;;;;;;111.47;45.03;;;;;;;6.07;100.00;102590.91;5017005;28;20702;-43
2022/11/27 02:41:58;;;;;;;126.60;46.00;;;;;;;6.05;100.00;102597.97;5015058;28;20561;-39
2022/11/27 02:44:25;;;;;;;112.72;43.00;;;;;;;6.06;100.00;102599.78;5019814;28;20173;-42
2022/11/27 02:46:53;;;;;;;106.22;42.95;;;;;;;6.04;100.00;102601.53;5014467;28;20181;-41
2022/11/27 02:49:19;;;;;;;103.63;43.22;;;;;;;6.04;100.00;102584.69;5018984;28;20212;-42
2022/11/27 02:51:56;;;;;;;106.50;42.58;;;;;;;6.07;100.00;102579.38;5015189;28;20201;-41
2022/11/27 02:54:28;;;;;;;95.72;40.72;;;;;;;6.07;100.00;102590.91;5020706;28;20263;-40
2022/11/27 02:56:57;;;;;;;104.88;41.55;;;;;;;6.01;100.00;102588.19;5016305;28;20280;-43
2022/11/27 02:59:28;;;;;;;88.47;39.42;;;;;;;6.03;100.00;102590.88;5019492;28;20330;-42
2022/11/27 03:02:04;;;;;;;88.32;39.33;;;;;;;6.02;100.00;102586.44;5018479;28;20174;-42
2022/11/27 03:04:36;;;;;;;91.80;38.28;;;;;;;5.99;100.00;102589.94;5021386;28;20270;-44
2022/11/27 03:07:07;;;;;;;96.57;38.33;;;;;;;6.01;100.00;102581.97;5019255;28;20175;-41
2022/11/27 03:09:36;;;;;;;75.03;35.08;;;;;;;6.02;100.00;102582.00;5022829;28;20321;-41
2022/11/27 03:12:07;;;;;;;80.93;35.80;;;;;;;5.98;100.00;102583.72;5021072;28;20242;-43
2022/11/27 03:14:34;;;;;;;74.95;34.03;;;;;;;5.97;100.00;102589.06;5019500;28;20254;-41
2022/11/27 03:17:00;;;;;;;78.53;35.72;;;;;;;5.95;100.00;102581.06;5019069;28;20208;-42
2022/11/27 03:19:35;;;;;;;80.10;34.38;;;;;;;5.98;100.00;102578.41;5023076;28;20714;-42
2022/11/27 03:22:02;;;;;;;80.50;32.50;;;;;;;5.96;100.00;102577.50;5018784;28;20215;-42
2022/11/27 03:24:29;;;;;;;65.30;31.30;;;;;;;5.95;100.00;102585.50;5019572;28;20273;-41
2022/11/27 03:26:57;;;;;;;51.13;28.50;;;;;;;6.01;100.00;102579.31;5015396;28;20189;-46
2022/11/27 03:29:47;;;;;;;62.70;29.83;;;;;;;5.91;100.00;102583.66;5023030;28;20176;-47
2022/11/27 03:32:13;;;;;;;65.65;29.77;;;;;;;5.84;100.00;102569.41;5014811;28;20549;-44
2022/11/27 03:34:39;;;;;;;60.28;27.25;;;;;;;5.82;100.00;102565.84;5017471;28;20183;-47
2022/11/27 03:37:05;;;;;;;59.78;28.80;;;;;;;5.81;100.00;102576.44;5025969;28;20195;-46
2022/11/27 03:39:31;;;;;;;58.42;27.77;;;;;;;5.71;100.00;102579.03;5018094;28;20197;-44
2022/11/27 03:41:57;;;;;;;59.72;27.45;;;;;;;5.61;100.00;102574.47;5017150;28;20187;-45
2022/11/27 03:44:45;;;;;;;51.67;25.42;;;;;;;5.60;100.00;102578.03;5014103;28;20197;-46
2022/11/27 03:47:26;;;;;;;61.85;25.08;;;;;;;5.42;100.00;102577.81;5014222;28;20207;-47
2022/11/27 03:50:17;;;;;;;51.25;24.08;;;;;;;5.46;100.00;102571.66;5016641;28;20183;-46
2022/11/27 03:52:50;;;;;;;59.35;24.85;;;;;;;5.34;100.00;102559.13;5027786;28;20200;-45
2022/11/27 03:55:21;;;;;;;55.92;24.95;;;;;;;5.33;100.00;102557.34;5011535;28;20186;-46
2022/11/27 03:57:59;;;;;;;59.88;25.92;;;;;;;5.19;100.00;102548.31;5021068;28;20258;-44
2022/11/27 04:00:29;;;;;;;63.38;25.70;;;;;;;5.16;100.00;102552.72;5013452;28;20176;-46
2022/11/27 04:02:54;;;;;;;55.45;23.80;;;;;;;5.16;100.00;102557.16;5015379;28;20189;-47
2022/11/27 04:05:20;;;;;;;50.35;24.25;;;;;;;5.07;100.00;102547.31;5023132;28;20500;-45
2022/11/27 04:07:46;;;;;;;50.25;23.52;;;;;;;5.10;100.00;102546.44;5022893;28;20214;-47
2022/11/27 04:10:12;;;;;;;57.58;23.25;;;;;;;5.05;100.00;102540.16;5022702;28;20567;-45
2022/11/27 04:12:37;;;;;;;45.00;22.85;;;;;;;5.03;100.00;102544.56;5022681;28;20241;-45
2022/11/27 04:15:04;;;;;;;44.45;21.98;;;;;;;4.95;100.00;102544.50;5020560;28;20824;-45
2022/11/27 04:17:30;;;;;;;53.50;22.67;;;;;;;4.94;100.00;102525.00;5019725;28;20200;-44
2022/11/27 04:19:56;;;;;;;48.72;22.58;;;;;;;4.83;100.00;102528.38;5018234;28;20230;-46
2022/11/27 04:22:22;;;;;;;48.45;20.85;;;;;;;4.80;100.00;102523.06;5018611;28;20671;-43
2022/11/27 04:24:47;;;;;;;57.15;22.10;;;;;;;4.74;100.00;102518.53;5017872;28;20248;-46
2022/11/27 04:27:13;;;;;;;53.88;23.08;;;;;;;4.71;100.00;102519.41;5017285;28;20585;-46
2022/11/27 04:29:39;;;;;;;48.35;21.45;;;;;;;4.64;100.00;102522.84;5021231;28;20188;-47
2022/11/27 04:32:04;;;;;;;45.60;21.20;;;;;;;4.67;100.00;102517.56;5015162;28;20180;-46
2022/11/27 04:34:31;;;;;;;50.17;21.30;;;;;;;4.61;100.00;102524.56;5018733;28;20231;-44
2022/11/27 04:36:56;;;;;;;44.20;20.00;;;;;;;4.55;100.00;102520.06;5021779;28;20283;-45
2022/11/27 04:39:22;;;;;;;42.65;19.25;;;;;;;4.57;100.00;102518.34;5018927;28;20560;-45
2022/11/27 04:41:48;;;;;;;42.88;18.88;;;;;;;4.51;100.00;102524.44;5027566;28;20195;-47
2022/11/27 04:44:13;;;;;;;38.22;18.42;;;;;;;4.54;100.00;102529.78;5021396;28;20650;-47
2022/11/27 04:46:39;;;;;;;40.47;18.40;;;;;;;4.48;100.00;102521.75;5025979;28;20188;-47
2022/11/27 04:49:04;;;;;;;37.13;18.45;;;;;;;4.46;100.00;102523.50;5020622;28;20695;-46
2022/11/27 04:51:30;;;;;;;41.45;19.17;;;;;;;4.44;100.00;102501.34;5021337;28;20201;-46
2022/11/27 04:53:55;;;;;;;43.15;18.27;;;;;;;4.43;100.00;102496.88;5022168;28;20187;-46
2022/11/27 04:56:21;;;;;;;37.67;17.77;;;;;;;4.39;100.00;102492.41;5019368;28;20664;-46
2022/11/27 04:58:46;;;;;;;33.90;17.50;;;;;;;4.42;100.00;102488.94;5020694;28;20200;-45
2022/11/27 05:01:12;;;;;;;39.42;17.40;;;;;;;4.38;100.00;102492.41;5018045;28;20191;-45
2022/11/27 05:03:38;;;;;;;36.67;16.75;;;;;;;4.37;100.00;102483.53;5020107;28;20191;-48
2022/11/27 05:06:03;;;;;;;34.80;17.02;;;;;;;4.38;100.00;102485.34;5017284;28;20172;-45
2022/11/27 05:08:31;;;;;;;38.05;16.85;;;;;;;4.36;100.00;102487.06;5018141;28;20191;-47
2022/11/27 05:11:02;;;;;;;43.83;17.60;;;;;;;4.31;100.00;102479.03;5016212;28;20729;-46
2022/11/27 05:13:28;;;;;;;32.65;16.70;;;;;;;4.29;100.00;102483.44;5017610;28;20192;-46
2022/11/27 05:15:54;;;;;;;46.08;16.65;;;;;;;4.28;100.00;102472.78;5019524;28;20257;-45
2022/11/27 05:18:19;;;;;;;33.78;17.02;;;;;;;4.26;100.00;102466.56;5016743;28;20200;-46
2022/11/27 05:20:45;;;;;;;36.10;17.00;;;;;;;4.22;100.00;102459.44;5016182;28;20176;-47
2022/11/27 05:23:10;;;;;;;40.10;16.77;;;;;;;4.17;100.00;102453.19;5017827;28;20223;-47
2022/11/27 05:25:36;;;;;;;30.92;16.30;;;;;;;4.20;100.00;102455.88;5017356;28;20207;-44
2022/11/27 05:28:01;;;;;;;35.58;16.75;;;;;;;4.18;100.00;102452.34;5020273;28;20209;-47
2022/11/27 05:30:27;;;;;;;30.65;16.27;;;;;;;4.12;100.00;102448.69;5019120;28;20615;-46
2022/11/27 05:32:53;;;;;;;37.38;18.25;;;;;;;4.11;100.00;102436.31;5025347;28;20211;-44
2022/11/27 05:35:18;;;;;;;34.90;16.42;;;;;;;4.09;100.00;102439.81;5019683;28;20177;-46
2022/11/27 05:37:44;;;;;;;36.70;17.42;;;;;;;4.02;100.00;102436.16;5021335;28;20283;-47
2022/11/27 05:40:09;;;;;;;36.67;16.67;;;;;;;4.01;100.00;102434.41;5022152;28;20188;-46
2022/11/27 05:42:35;;;;;;;47.05;17.55;;;;;;;3.92;100.00;102429.84;5020371;28;20940;-46
2022/11/27 05:45:00;;;;;;;42.85;18.05;;;;;;;3.90;100.00;102430.69;5016463;28;20216;-45
2022/11/27 05:47:26;;;;;;;43.53;17.48;;;;;;;3.85;100.00;102421.78;5017265;28;20251;-46
2022/11/27 05:49:51;;;;;;;42.38;18.23;;;;;;;3.84;100.00;102425.28;5020718;28;20180;-45
2022/11/27 05:52:17;;;;;;;40.33;19.13;;;;;;;3.81;100.00;102435.88;5025079;28;20214;-45
2022/11/27 05:54:43;;;;;;;36.92;19.02;;;;;;;3.81;100.00;102435.88;5016382;28;20207;-45
2022/11/27 05:57:08;;;;;;;44.15;19.42;;;;;;;3.76;100.00;102432.22;5018049;28;20538;-48
2022/11/27 05:59:34;;;;;;;46.15;19.23;;;;;;;3.74;100.00;102436.63;5014348;28;20275;-47
2022/11/27 06:01:59;;;;;;;59.60;20.52;;;;;;;3.66;100.00;102437.38;5018646;28;20307;-46
2022/11/27 06:04:25;;;;;;;40.70;18.52;;;;;;;3.68;100.00;102438.31;5015547;28;20177;-45
2022/11/27 06:06:50;;;;;;;38.85;18.75;;;;;;;3.68;100.00;102440.97;5014464;28;20688;-46
2022/11/27 06:09:16;;;;;;;40.70;19.23;;;;;;;3.69;100.00;102447.16;5018145;28;20279;-43
2022/11/27 06:11:41;;;;;;;45.92;20.65;;;;;;;3.65;100.00;102451.53;5012220;28;20575;-45
2022/11/27 06:14:08;;;;;;;50.70;19.40;;;;;;;3.66;100.00;102444.47;5016558;28;20185;-46
2022/11/27 06:16:34;;;;;;;44.65;20.67;;;;;;;3.60;100.00;102431.09;5015616;28;20253;-47
2022/11/27 06:18:59;;;;;;;44.70;20.13;;;;;;;3.64;100.00;102440.88;5024923;28;20295;-46
2022/11/27 06:21:24;;;;;;;41.15;19.95;;;;;;;3.58;100.00;102438.13;5020334;28;20179;-45
2022/11/27 06:23:55;;;;;;;42.58;19.58;;;;;;;3.61;100.00;102438.19;5020173;28;20650;-46
2022/11/27 06:26:27;;;;;;;45.20;19.25;;;;;;;3.55;100.00;102435.44;5016841;28;20538;-46
2022/11/27 06:28:54;;;;;;;52.53;20.92;;;;;;;3.50;100.00;102425.66;5019113;28;20196;-46
2022/11/27 06:31:22;;;;;;;45.25;20.23;;;;;;;3.51;100.00;102439.78;5017414;28;20274;-47
2022/11/27 06:33:50;;;;;;;40.53;19.70;;;;;;;3.47;100.00;102436.19;5018476;28;20250;-47
2022/11/27 06:36:17;;;;;;;46.03;20.52;;;;;;;3.43;100.00;102426.44;5019079;28;20203;-46
2022/11/27 06:38:43;;;;;;;51.25;20.80;;;;;;;3.42;100.00;102426.41;5016039;28;20258;-48
2022/11/27 06:41:23;;;;;;;43.00;21.67;;;;;;;3.36;100.00;102431.56;5016393;28;20181;-43
2022/11/27 06:43:49;;;;;;;46.10;21.55;;;;;;;3.33;100.00;102437.72;5016599;28;20194;-47
2022/11/27 06:46:17;;;;;;;49.03;21.70;;;;;;;3.29;100.00;102443.81;5015512;28;20223;-45
2022/11/27 06:48:44;;;;;;;50.78;22.83;;;;;;;3.30;100.00;102435.00;5016041;28;20219;-45
2022/11/27 06:51:15;;;;;;;47.42;22.98;;;;;;;3.27;100.00;102435.84;5014294;28;20191;-46
2022/11/27 06:53:42;;;;;;;55.40;23.33;;;;;;;3.22;100.00;102434.00;5014424;28;20176;-47
2022/11/27 06:56:10;;;;;;;52.85;25.25;;;;;;;3.19;100.00;102423.31;5016838;28;20678;-46
2022/11/27 06:58:36;;;;;;;53.25;25.23;;;;;;;3.16;100.00;102415.34;5010878;28;20219;-45
2022/11/27 07:01:05;;;;;;;52.13;26.73;;;;;;;3.19;100.00;102408.34;5012005;28;20200;-45
2022/11/27 07:03:31;;;;;;;56.45;27.40;;;;;;;3.11;100.00;102406.44;5016405;28;20251;-45
2022/11/27 07:06:01;;;;;;;52.28;25.90;;;;;;;3.09;100.00;102390.50;5023196;28;20245;-45
2022/11/27 07:08:27;;;;;;;57.70;27.05;;;;;;;3.05;100.00;102405.44;5018760;28;20287;-49
2022/11/27 07:10:53;;;;;;;61.15;25.75;;;;;;;3.04;100.00;102397.47;5019892;28;20180;-48
2022/11/27 07:13:18;;;;;;;53.13;27.30;;;;;;;3.04;100.00;102411.63;5020363;28;20168;-46
2022/11/27 07:15:44;;;;;;;58.60;27.95;;;;;;;3.03;100.00;102427.47;5017397;28;20187;-48
2022/11/27 07:18:10;;;;;;;58.95;27.35;;;;;;;3.02;100.00;102431.88;5016714;28;20212;-47
2022/11/27 07:20:35;;;;;;;47.65;25.98;;;;;;;3.06;100.00;102438.09;5015789;28;20189;-47
2022/11/27 07:23:01;;;;;;;53.97;27.40;;;;;;;3.09;100.00;102447.00;5017351;28;20187;-47
2022/11/27 07:25:26;;;;;;;60.83;29.45;;;;;;;3.06;100.00;102443.38;5019660;28;20168;-46
2022/11/27 07:27:52;;;;;;;63.10;28.40;;;;;;;3.07;100.00;102439.91;5014192;28;20271;-45
2022/11/27 07:30:17;;;;;;;63.72;29.80;;;;;;;3.05;100.00;102434.56;5027452;28;20180;-46
2022/11/27 07:32:43;;;;;;;56.28;29.33;;;;;;;3.03;100.00;102433.63;5012265;28;20193;-48
2022/11/27 07:35:09;;;;;;;61.83;29.92;;;;;;;3.02;100.00;102428.34;5019085;28;20180;-48
2022/11/27 07:37:34;;;;;;;58.22;29.27;;;;;;;3.04;100.00;102416.00;5019505;28;20216;-45
2022/11/27 07:40:00;;;;;;;61.42;29.02;;;;;;;3.06;100.00;102404.59;5019513;28;20201;-47
2022/11/27 07:42:27;;;;;;;66.18;30.30;;;;;;;3.07;100.00;102408.13;5019711;28;20249;-46
2022/11/27 07:44:53;;;;;;;62.50;29.77;;;;;;;3.11;100.00;102409.97;5025385;28;20177;-47
2022/11/27 07:47:19;;;;;;;61.15;30.58;;;;;;;3.13;100.00;102413.53;5020080;28;20561;-46
2022/11/27 07:49:44;;;;;;;57.05;30.58;;;;;;;3.03;100.00;102409.81;5029309;28;20183;-47
2022/11/27 07:52:10;;;;;;;65.45;32.60;;;;;;;3.05;100.00;102421.31;5026423;28;20191;-46
2022/11/27 07:54:36;;;;;;;60.58;32.35;;;;;;;3.06;100.00;102414.25;5023475;28;20722;-45
2022/11/27 07:57:02;;;;;;;66.95;31.65;;;;;;;3.08;100.00;102417.84;5019227;28;20210;-45
2022/11/27 07:59:28;;;;;;;62.17;31.35;;;;;;;3.06;100.00;102423.13;5024843;28;20276;-47
2022/11/27 08:01:54;;;;;;;57.47;30.83;;;;;;;3.13;100.00;102428.50;5020726;28;20196;-47
2022/11/27 08:04:19;;;;;;;67.65;30.77;;;;;;;3.13;100.00;102426.78;5021702;28;20255;-47
2022/11/27 08:06:47;;;;;;;66.63;32.85;;;;;;;3.13;100.00;102424.13;5019777;28;20189;-45
2022/11/27 08:09:13;;;;;;;65.95;33.00;;;;;;;3.15;100.00;102433.00;5018488;28;20201;-47
2022/11/27 08:11:38;;;;;;;58.60;29.92;;;;;;;3.16;100.00;102423.28;5035306;28;20564;-46
2022/11/27 08:14:06;;;;;;;61.30;31.67;;;;;;;3.20;100.00;102422.47;5017652;28;20184;-48
2022/11/27 08:16:33;;;;;;;65.90;31.60;;;;;;;3.16;100.00;102426.81;4965630;28;20350;-44
2022/11/27 08:18:58;;;;;;;62.08;31.65;;;;;;;3.14;100.00;102428.53;5011428;28;20695;-46
2022/11/27 08:21:25;;;;;;;59.72;30.40;;;;;;;3.16;100.00;102416.22;5013300;28;20187;-46
2022/11/27 08:23:51;;;;;;;59.80;30.00;;;;;;;3.13;100.00;102420.56;5019615;28;20270;-47
2022/11/27 08:26:17;;;;;;;61.20;30.80;;;;;;;3.17;100.00;102418.03;5022272;28;20231;-47
2022/11/27 08:28:43;;;;;;;56.58;30.67;;;;;;;3.15;100.00;102406.50;5014900;28;20300;-50
2022/11/27 08:31:11;;;;;;;59.00;29.88;;;;;;;3.20;100.00;102399.53;5012387;28;20587;-46
2022/11/27 08:33:37;;;;;;;58.38;30.00;;;;;;;3.11;100.00;102379.94;5013739;28;20177;-45
2022/11/27 08:36:03;;;;;;;56.85;29.60;;;;;;;3.17;100.00;102382.69;5014400;28;20204;-47
2022/11/27 08:38:29;;;;;;;54.80;28.42;;;;;;;3.02;100.00;102376.28;5015442;28;20232;-46
2022/11/27 08:40:57;;;;;;;48.40;27.33;;;;;;;3.09;100.00;102362.25;5016742;28;20227;-47
2022/11/27 08:43:24;;;;;;;54.67;27.55;;;;;;;3.21;100.00;102374.81;5013350;28;20212;-46
2022/11/27 08:45:50;;;;;;;50.95;27.95;;;;;;;3.16;100.00;102383.56;5018770;28;20188;-46
2022/11/27 08:48:17;;;;;;;57.47;29.13;;;;;;;3.24;100.00;102374.88;5017948;28;20201;-46
2022/11/27 08:50:43;;;;;;;48.67;27.08;;;;;;;3.24;100.00;102364.28;5017039;28;20226;-46
2022/11/27 08:53:08;;;;;;;54.33;29.35;;;;;;;3.22;100.00;102368.66;5017100;28;20569;-47
2022/11/27 08:55:34;;;;;;;47.17;28.55;;;;;;;3.32;100.00;102360.88;5012277;28;20192;-46
2022/11/27 08:57:59;;;;;;;51.42;28.88;;;;;;;3.30;100.00;102372.34;5012921;28;20593;-45
2022/11/27 09:00:25;;;;;;;44.90;27.52;;;;;;;3.30;100.00;102363.47;5011975;28;20275;-46
2022/11/27 09:02:51;;;;;;;46.13;27.77;;;;;;;3.37;100.00;102348.56;5012263;28;20192;-47
2022/11/27 09:05:16;;;;;;;48.17;27.20;;;;;;;3.27;100.00;102348.44;5009713;28;20189;-46
2022/11/27 09:07:42;;;;;;;44.53;27.30;;;;;;;3.29;100.00;102325.50;5013872;28;20200;-46
2022/11/27 09:10:08;;;;;;;39.97;26.38;;;;;;;3.34;100.00;102322.03;5010312;28;20190;-46
2022/11/27 09:12:34;;;;;;;39.83;26.17;;;;;;;3.31;100.00;102317.59;5012427;28;20208;-46
2022/11/27 09:14:59;;;;;;;42.22;26.60;;;;;;;3.28;100.00;102314.91;5008136;28;20271;-47
2022/11/27 09:17:25;;;;;;;41.65;26.60;;;;;;;3.32;100.00;102302.59;5012087;28;20208;-45
2022/11/27 09:19:51;;;;;;;44.30;26.90;;;;;;;3.39;100.00;102300.06;5013461;28;20219;-47
2022/11/27 09:22:16;;;;;;;39.55;25.05;;;;;;;3.39;100.00;102300.06;5013760;28;20172;-46
2022/11/27 09:24:42;;;;;;;36.72;24.20;;;;;;;3.44;100.00;102297.50;5013576;28;20179;-44
2022/11/27 09:27:08;;;;;;;38.38;24.70;;;;;;;3.33;100.00;102301.75;5011022;28;20239;-47
2022/11/27 09:29:34;;;;;;;37.38;24.15;;;;;;;3.36;100.00;102305.31;5009163;28;20196;-46
2022/11/27 09:31:59;;;;;;;41.10;23.08;;;;;;;3.39;100.00;102310.66;5017700;28;20572;-46
2022/11/27 09:34:25;;;;;;;35.78;22.10;;;;;;;3.42;100.00;102315.13;5012610;28;20183;-45
2022/11/27 09:36:51;;;;;;;35.42;22.52;;;;;;;3.47;100.00;102316.94;5013648;28;20196;-46
2022/11/27 09:39:18;;;;;;;35.28;22.67;;;;;;;3.46;100.00;102309.88;5019900;28;20216;-46
2022/11/27 09:41:47;;;;;;;35.50;22.08;;;;;;;3.77;100.00;102307.66;5015888;28;20180;-46
2022/11/27 09:44:26;;;;;;;32.55;21.80;;;;;;;3.78;100.00;102304.13;5018284;28;20253;-45
2022/11/27 09:46:55;;;;;;;36.00;22.45;;;;;;;3.79;100.00;102302.41;5027832;28;20668;-46
2022/11/27 09:49:50;;;;;;;37.22;21.92;;;;;;;3.70;100.00;102304.03;5009425;28;20196;-45
2022/11/27 09:52:37;;;;;;;31.50;21.17;;;;;;;3.78;100.00;102303.25;5008228;28;20189;-45
2022/11/27 09:55:29;;;;;;;28.85;19.63;;;;;;;3.87;100.00;102306.00;5013307;28;20175;-44
2022/11/27 09:58:04;;;;;;;31.08;19.55;;;;;;;3.84;100.00;102312.19;5012394;28;20212;-45
2022/11/27 10:00:30;;;;;;;30.63;19.17;;;;;;;3.87;100.00;102308.66;5012648;28;20180;-45
2022/11/27 10:02:56;;;;;;;29.70;19.40;;;;;;;3.85;100.00;102295.41;5008552;28;20222;-47
2022/11/27 10:05:42;;;;;;;31.75;19.52;;;;;;;3.74;100.00;102297.03;5011143;28;20819;-46
2022/11/27 10:08:51;;;;;;;33.22;19.85;;;;;;;3.83;100.00;102286.56;5013133;28;20208;-47
2022/11/27 10:11:38;;;;;;;27.70;19.25;;;;;;;3.90;100.00;102282.22;5013613;28;20184;-45
2022/11/27 10:14:40;;;;;;;28.27;18.75;;;;;;;3.90;100.00;102267.19;5015562;28;20669;-46
2022/11/27 10:17:28;;;;;;;25.58;18.15;;;;;;;3.99;100.00;102274.38;5012100;28;20290;-46
2022/11/27 10:20:13;;;;;;;28.80;19.20;;;;;;;3.86;100.00;102260.06;5009734;28;20247;-45
2022/11/27 10:22:49;;;;;;;27.00;17.67;;;;;;;3.84;100.00;102245.91;5013213;28;20644;-45
2022/11/27 10:25:30;;;;;;;30.35;18.83;;;;;;;3.91;100.00;102246.84;5009722;28;20184;-46
2022/11/27 10:28:37;;;;;;;27.75;17.85;;;;;;;3.99;100.00;102250.50;5029702;28;20427;-47
2022/11/27 10:31:20;;;;;;;30.17;18.67;;;;;;;4.07;100.00;102238.22;5016737;28;20184;-45
2022/11/27 10:34:00;;;;;;;28.83;17.95;;;;;;;4.07;100.00;102232.03;5010693;28;20280;-45
2022/11/27 10:36:42;;;;;;;25.70;16.33;;;;;;;4.15;100.00;102237.41;5014661;28;20192;-45
2022/11/27 10:39:17;;;;;;;23.05;16.48;;;;;;;4.28;100.00;102239.31;5008560;28;20201;-44
2022/11/27 10:41:52;;;;;;;26.67;17.75;;;;;;;4.24;100.00;102233.13;5010574;28;20334;-45
2022/11/27 10:44:34;;;;;;;26.15;16.20;;;;;;;4.27;100.00;102240.22;5009877;28;20211;-46
2022/11/27 10:47:09;;;;;;;23.33;16.83;;;;;;;4.26;100.00;102228.72;5012069;28;20601;-43
2022/11/27 10:49:39;;;;;;;23.73;16.27;;;;;;;4.13;100.00;102225.03;5014372;28;20192;-44
2022/11/27 10:52:05;;;;;;;24.30;15.68;;;;;;;4.22;100.00;102215.38;5013146;28;20196;-46
2022/11/27 10:54:37;;;;;;;22.50;16.10;;;;;;;4.25;100.00;102218.06;5015861;28;20184;-46
2022/11/27 10:57:21;;;;;;;23.15;15.85;;;;;;;4.16;100.00;102224.19;5012397;28;20212;-45
2022/11/27 11:00:04;;;;;;;24.17;14.70;;;;;;;4.23;100.00;102209.22;5011491;28;20663;-42
2022/11/27 11:02:31;;;;;;;23.23;15.95;;;;;;;4.29;100.00;102199.56;5013369;28;20216;-45
2022/11/27 11:04:56;;;;;;;22.10;15.50;;;;;;;4.20;100.00;102185.28;5013674;28;20682;-43
2022/11/27 11:07:24;;;;;;;22.38;14.27;;;;;;;4.21;100.00;102190.63;5012729;28;20201;-43
2022/11/27 11:09:50;;;;;;;19.17;14.32;;;;;;;4.30;100.00;102190.69;5009199;28;20628;-44
2022/11/27 11:12:20;;;;;;;22.73;15.55;;;;;;;4.44;100.00;102179.31;5010835;28;20197;-42
2022/11/27 11:14:57;;;;;;;22.77;14.57;;;;;;;4.39;100.00;102181.94;5035789;28;20184;-46
2022/11/27 11:17:33;;;;;;;21.80;14.35;;;;;;;4.45;100.00;102174.03;5025260;28;20306;-43